PWSweather.com
Personal Weather Stations
Station Observations
ISYDDANM23
Felsted, AabenraaDK 6200

FelstedAabenraaDK 6200

Lat: 54.977066, Lon: 9.507192

Elevation: 135

Station Type: Davis Vantage Pro 2 Plus 24H

http://www.valkaer.dk

High Low Average
Temperature 67.5°F19.7°C 52.1°F11.2°C 57.9°F14.4°C
Dew Point 59.4°F15.2°C 50.1°F10.1°C 54.2°F12.3°C
Winds 9.2 mph 14.8 kmh Calm Calm 4.0 mph ENE6.4 kmh ENE
Wind Gusts 16.1 mph25.9 kmh -- 7.0 mph11.3 kmh
Humidity 94% 75% 88%
Pressure 29.80 in1009.1 mb 29.75 in1007.5 mb -
Precipitation 0.00 in0.0 mm - -
Hour Temp Dew Point Humidity Winds Wind Gusts Pressure Precip Precip Rate Daily Precip Total
12:00 AM 53.9°F12.2°C 50.8°F10.4°C 89% 2.3 mph ENE3.7 kmh ENE 3.5 mph5.6 kmh 29.80 in1009.1 mb - 0.00 in0.0 mm 0.00 in0.0 mm
12:10 AM 53.7°F12.1°C 50.8°F10.4°C 90% 2.3 mph ENE3.7 kmh ENE 4.6 mph7.4 kmh 29.80 in1009.1 mb - 0.00 in0.0 mm 0.00 in0.0 mm
12:15 AM 53.6°F12.0°C 50.8°F10.4°C 90% 2.3 mph ENE3.7 kmh ENE 4.6 mph7.4 kmh 29.80 in1009.1 mb - 0.00 in0.0 mm 0.00 in0.0 mm
12:20 AM 53.7°F12.1°C 50.8°F10.4°C 90% 3.5 mph NE5.6 kmh NE 4.6 mph7.4 kmh 29.80 in1009.1 mb - 0.00 in0.0 mm 0.00 in0.0 mm
12:25 AM 53.6°F12.0°C 50.8°F10.4°C 90% 2.3 mph NE3.7 kmh NE 3.5 mph5.6 kmh 29.79 in1008.8 mb - 0.00 in0.0 mm 0.00 in0.0 mm
12:30 AM 53.6°F12.0°C 50.7°F10.4°C 90% 3.5 mph NE5.6 kmh NE 8.1 mph13.0 kmh 29.80 in1009.1 mb - 0.00 in0.0 mm 0.00 in0.0 mm
12:35 AM 53.6°F12.0°C 50.7°F10.4°C 90% 3.5 mph NE5.6 kmh NE 4.6 mph7.4 kmh 29.79 in1008.8 mb - 0.00 in0.0 mm 0.00 in0.0 mm
12:40 AM 53.6°F12.0°C 51.0°F10.6°C 91% 1.2 mph NE1.9 kmh NE 3.5 mph5.6 kmh 29.79 in1008.8 mb - 0.00 in0.0 mm 0.00 in0.0 mm
12:45 AM 53.5°F11.9°C 50.9°F10.5°C 91% 2.3 mph ENE3.7 kmh ENE 2.3 mph3.7 kmh 29.80 in1009.1 mb - 0.00 in0.0 mm 0.00 in0.0 mm
12:50 AM 53.3°F11.8°C 50.7°F10.4°C 91% 2.3 mph NE3.7 kmh NE 3.5 mph5.6 kmh 29.80 in1009.1 mb - 0.00 in0.0 mm 0.00 in0.0 mm
12:55 AM 53.2°F11.8°C 50.6°F10.3°C 91% 1.2 mph ENE1.9 kmh ENE 3.5 mph5.6 kmh 29.79 in1008.8 mb - 0.00 in0.0 mm 0.00 in0.0 mm
01:00 AM 53.1°F11.7°C 50.6°F10.3°C 91% 2.3 mph NE3.7 kmh NE 3.5 mph5.6 kmh 29.79 in1008.8 mb - 0.00 in0.0 mm 0.00 in0.0 mm
01:10 AM 52.9°F11.6°C 50.3°F10.2°C 91% 1.2 mph NE1.9 kmh NE 2.3 mph3.7 kmh 29.79 in1008.8 mb - 0.00 in0.0 mm 0.00 in0.0 mm
01:15 AM 52.8°F11.6°C 50.2°F10.1°C 91% 1.2 mph NE1.9 kmh NE 2.3 mph3.7 kmh 29.79 in1008.8 mb - 0.00 in0.0 mm 0.00 in0.0 mm
01:20 AM 52.9°F11.6°C 50.6°F10.3°C 92% 1.2 mph NE1.9 kmh NE 3.5 mph5.6 kmh 29.79 in1008.8 mb - 0.00 in0.0 mm 0.00 in0.0 mm
01:25 AM 53.1°F11.7°C 50.8°F10.4°C 92% 4.6 mph NE7.4 kmh NE 5.8 mph9.3 kmh 29.79 in1008.8 mb - 0.00 in0.0 mm 0.00 in0.0 mm
01:30 AM 53.7°F12.1°C 51.4°F10.8°C 92% 1.2 mph E1.9 kmh E 5.8 mph9.3 kmh 29.79 in1008.8 mb - 0.00 in0.0 mm 0.00 in0.0 mm
01:35 AM 53.9°F12.2°C 51.6°F10.9°C 92% 1.2 mph E1.9 kmh E 3.5 mph5.6 kmh 29.79 in1008.8 mb - 0.00 in0.0 mm 0.00 in0.0 mm
01:40 AM 54.0°F12.2°C 51.7°F10.9°C 92% 3.5 mph E5.6 kmh E 3.5 mph5.6 kmh 29.79 in1008.8 mb - 0.00 in0.0 mm 0.00 in0.0 mm
01:45 AM 54.1°F12.3°C 51.8°F11.0°C 92% 3.5 mph E5.6 kmh E 4.6 mph7.4 kmh 29.79 in1008.8 mb - 0.00 in0.0 mm 0.00 in0.0 mm
01:50 AM 54.2°F12.3°C 51.9°F11.1°C 92% 3.5 mph E5.6 kmh E 6.9 mph11.1 kmh 29.79 in1008.8 mb - 0.00 in0.0 mm 0.00 in0.0 mm
01:55 AM 54.2°F12.3°C 52.0°F11.1°C 92% 3.5 mph E5.6 kmh E 6.9 mph11.1 kmh 29.79 in1008.8 mb - 0.00 in0.0 mm 0.00 in0.0 mm
02:00 AM 54.3°F12.4°C 52.0°F11.1°C 92% 3.5 mph ESE5.6 kmh ESE 6.9 mph11.1 kmh 29.79 in1008.8 mb - 0.00 in0.0 mm 0.00 in0.0 mm
02:10 AM 54.2°F12.3°C 51.9°F11.1°C 92% 3.5 mph E5.6 kmh E 6.9 mph11.1 kmh 29.79 in1008.8 mb - 0.00 in0.0 mm 0.00 in0.0 mm
02:15 AM 54.1°F12.3°C 51.9°F11.1°C 92% 3.5 mph E5.6 kmh E 5.8 mph9.3 kmh 29.79 in1008.8 mb - 0.00 in0.0 mm 0.00 in0.0 mm
02:20 AM 54.1°F12.3°C 51.8°F11.0°C 92% 4.6 mph ESE7.4 kmh ESE 9.2 mph14.8 kmh 29.79 in1008.8 mb - 0.00 in0.0 mm 0.00 in0.0 mm
02:25 AM 54.0°F12.2°C 51.8°F11.0°C 92% 2.3 mph ENE3.7 kmh ENE 5.8 mph9.3 kmh 29.79 in1008.8 mb - 0.00 in0.0 mm 0.00 in0.0 mm
02:30 AM 53.8°F12.1°C 51.6°F10.9°C 92% 4.6 mph SE7.4 kmh SE 6.9 mph11.1 kmh 29.79 in1008.8 mb - 0.00 in0.0 mm 0.00 in0.0 mm
02:35 AM 53.6°F12.0°C 51.4°F10.8°C 92% 3.5 mph E5.6 kmh E 10.4 mph16.7 kmh 29.79 in1008.8 mb - 0.00 in0.0 mm 0.00 in0.0 mm
02:40 AM 53.4°F11.9°C 51.2°F10.7°C 92% 3.5 mph E5.6 kmh E 5.8 mph9.3 kmh 29.79 in1008.8 mb - 0.00 in0.0 mm 0.00 in0.0 mm
02:45 AM 53.4°F11.9°C 51.4°F10.8°C 93% 5.8 mph E9.3 kmh E 8.1 mph13.0 kmh 29.79 in1008.8 mb - 0.00 in0.0 mm 0.00 in0.0 mm
02:50 AM 53.4°F11.9°C 51.4°F10.8°C 93% 2.3 mph E3.7 kmh E 3.5 mph5.6 kmh 29.78 in1008.5 mb - 0.00 in0.0 mm 0.00 in0.0 mm
02:55 AM 53.3°F11.8°C 51.3°F10.7°C 93% 4.6 mph E7.4 kmh E 6.9 mph11.1 kmh 29.79 in1008.8 mb - 0.00 in0.0 mm 0.00 in0.0 mm
03:00 AM 53.3°F11.8°C 51.3°F10.7°C 93% 3.5 mph E5.6 kmh E 6.9 mph11.1 kmh 29.78 in1008.5 mb - 0.00 in0.0 mm 0.00 in0.0 mm
03:10 AM 53.1°F11.7°C 51.1°F10.6°C 93% 2.3 mph E3.7 kmh E 3.5 mph5.6 kmh 29.78 in1008.5 mb - 0.00 in0.0 mm 0.00 in0.0 mm
03:15 AM 53.0°F11.7°C 51.0°F10.6°C 93% 3.5 mph E5.6 kmh E 6.9 mph11.1 kmh 29.78 in1008.5 mb - 0.00 in0.0 mm 0.00 in0.0 mm
03:20 AM 52.9°F11.6°C 51.0°F10.6°C 93% 2.3 mph ENE3.7 kmh ENE 3.5 mph5.6 kmh 29.78 in1008.5 mb - 0.00 in0.0 mm 0.00 in0.0 mm
03:25 AM 52.9°F11.6°C 51.0°F10.6°C 93% 3.5 mph E5.6 kmh E 4.6 mph7.4 kmh 29.78 in1008.5 mb - 0.00 in0.0 mm 0.00 in0.0 mm
03:30 AM 52.9°F11.6°C 50.9°F10.5°C 93% 4.6 mph E7.4 kmh E 6.9 mph11.1 kmh 29.78 in1008.5 mb - 0.00 in0.0 mm 0.00 in0.0 mm
03:35 AM 52.8°F11.6°C 50.8°F10.4°C 93% 4.6 mph E7.4 kmh E 6.9 mph11.1 kmh 29.78 in1008.5 mb - 0.00 in0.0 mm 0.00 in0.0 mm
03:40 AM 52.7°F11.5°C 50.7°F10.4°C 93% 3.5 mph E5.6 kmh E 6.9 mph11.1 kmh 29.77 in1008.1 mb - 0.00 in0.0 mm 0.00 in0.0 mm
03:45 AM 52.7°F11.5°C 50.7°F10.4°C 93% 4.6 mph ENE7.4 kmh ENE 5.8 mph9.3 kmh 29.77 in1008.1 mb - 0.00 in0.0 mm 0.00 in0.0 mm
03:50 AM 52.6°F11.4°C 50.6°F10.3°C 93% 4.6 mph E7.4 kmh E 8.1 mph13.0 kmh 29.78 in1008.5 mb - 0.00 in0.0 mm 0.00 in0.0 mm
03:55 AM 52.5°F11.4°C 50.5°F10.3°C 93% 4.6 mph ENE7.4 kmh ENE 6.9 mph11.1 kmh 29.78 in1008.5 mb - 0.00 in0.0 mm 0.00 in0.0 mm
04:00 AM 52.4°F11.3°C 50.4°F10.2°C 93% 3.5 mph NE5.6 kmh NE 5.8 mph9.3 kmh 29.78 in1008.5 mb - 0.00 in0.0 mm 0.00 in0.0 mm
04:10 AM 52.2°F11.2°C 50.2°F10.1°C 93% 4.6 mph E7.4 kmh E 8.1 mph13.0 kmh 29.78 in1008.5 mb - 0.00 in0.0 mm 0.00 in0.0 mm
04:15 AM 52.1°F11.2°C 50.1°F10.1°C 93% 3.5 mph E5.6 kmh E 4.6 mph7.4 kmh 29.78 in1008.5 mb - 0.00 in0.0 mm 0.00 in0.0 mm
04:20 AM 52.2°F11.2°C 50.2°F10.1°C 93% 3.5 mph E5.6 kmh E 3.5 mph5.6 kmh 29.78 in1008.5 mb - 0.00 in0.0 mm 0.00 in0.0 mm
04:25 AM 52.2°F11.2°C 50.5°F10.3°C 94% 3.5 mph E5.6 kmh E 10.4 mph16.7 kmh 29.77 in1008.1 mb - 0.00 in0.0 mm 0.00 in0.0 mm
04:30 AM 52.2°F11.2°C 50.5°F10.3°C 94% 4.6 mph E7.4 kmh E 6.9 mph11.1 kmh 29.77 in1008.1 mb - 0.00 in0.0 mm 0.00 in0.0 mm
04:35 AM 52.1°F11.2°C 50.4°F10.2°C 94% 1.2 mph NE1.9 kmh NE 2.3 mph3.7 kmh 29.78 in1008.5 mb - 0.00 in0.0 mm 0.00 in0.0 mm
04:40 AM 52.3°F11.3°C 50.6°F10.3°C 94% 3.5 mph ENE5.6 kmh ENE 4.6 mph7.4 kmh 29.77 in1008.1 mb - 0.00 in0.0 mm 0.00 in0.0 mm
04:45 AM 52.2°F11.2°C 50.5°F10.3°C 94% 2.3 mph E3.7 kmh E 5.8 mph9.3 kmh 29.78 in1008.5 mb - 0.00 in0.0 mm 0.00 in0.0 mm
04:50 AM 52.2°F11.2°C 50.2°F10.1°C 93% 6.9 mph ENE11.1 kmh ENE 10.4 mph16.7 kmh 29.78 in1008.5 mb - 0.00 in0.0 mm 0.00 in0.0 mm
04:55 AM 52.1°F11.2°C 50.1°F10.1°C 93% 5.8 mph E9.3 kmh E 10.4 mph16.7 kmh 29.78 in1008.5 mb - 0.00 in0.0 mm 0.00 in0.0 mm
05:00 AM 52.1°F11.2°C 50.4°F10.2°C 94% 3.5 mph E5.6 kmh E 4.6 mph7.4 kmh 29.77 in1008.1 mb - 0.00 in0.0 mm 0.00 in0.0 mm
05:10 AM 52.2°F11.2°C 50.5°F10.3°C 94% 5.8 mph E9.3 kmh E 10.4 mph16.7 kmh 29.78 in1008.5 mb - 0.00 in0.0 mm 0.00 in0.0 mm
05:15 AM 52.3°F11.3°C 50.6°F10.3°C 94% 4.6 mph E7.4 kmh E 6.9 mph11.1 kmh 29.78 in1008.5 mb - 0.00 in0.0 mm 0.00 in0.0 mm
05:20 AM 52.3°F11.3°C 50.6°F10.3°C 94% 3.5 mph E5.6 kmh E 4.6 mph7.4 kmh 29.78 in1008.5 mb - 0.00 in0.0 mm 0.00 in0.0 mm
05:25 AM 52.5°F11.4°C 50.8°F10.4°C 94% 6.9 mph E11.1 kmh E 12.7 mph20.4 kmh 29.78 in1008.5 mb - 0.00 in0.0 mm 0.00 in0.0 mm
05:30 AM 52.5°F11.4°C 50.8°F10.4°C 94% 3.5 mph E5.6 kmh E 6.9 mph11.1 kmh 29.78 in1008.5 mb - 0.00 in0.0 mm 0.00 in0.0 mm
05:35 AM 52.7°F11.5°C 51.0°F10.6°C 94% 4.6 mph E7.4 kmh E 6.9 mph11.1 kmh 29.79 in1008.8 mb - 0.00 in0.0 mm 0.00 in0.0 mm
05:40 AM 52.8°F11.6°C 51.1°F10.6°C 94% 4.6 mph ESE7.4 kmh ESE 6.9 mph11.1 kmh 29.79 in1008.8 mb - 0.00 in0.0 mm 0.00 in0.0 mm
05:45 AM 52.9°F11.6°C 51.2°F10.7°C 94% 4.6 mph ENE7.4 kmh ENE 10.4 mph16.7 kmh 29.79 in1008.8 mb - 0.00 in0.0 mm 0.00 in0.0 mm
05:50 AM 53.0°F11.7°C 51.3°F10.7°C 94% 2.3 mph E3.7 kmh E 3.5 mph5.6 kmh 29.79 in1008.8 mb - 0.00 in0.0 mm 0.00 in0.0 mm
05:55 AM 53.0°F11.7°C 51.4°F10.8°C 94% 3.5 mph E5.6 kmh E 9.2 mph14.8 kmh 29.79 in1008.8 mb - 0.00 in0.0 mm 0.00 in0.0 mm
06:00 AM 53.1°F11.7°C 51.4°F10.8°C 94% 4.6 mph E7.4 kmh E 9.2 mph14.8 kmh 29.78 in1008.5 mb - 0.00 in0.0 mm 0.00 in0.0 mm
06:10 AM 53.3°F11.8°C 51.7°F10.9°C 94% 5.8 mph E9.3 kmh E 10.4 mph16.7 kmh 29.78 in1008.5 mb - 0.00 in0.0 mm 0.00 in0.0 mm
06:15 AM 53.4°F11.9°C 51.7°F10.9°C 94% 5.8 mph E9.3 kmh E 8.1 mph13.0 kmh 29.78 in1008.5 mb - 0.00 in0.0 mm 0.00 in0.0 mm
06:20 AM 53.5°F11.9°C 51.8°F11.0°C 94% 3.5 mph E5.6 kmh E 6.9 mph11.1 kmh 29.78 in1008.5 mb - 0.00 in0.0 mm 0.00 in0.0 mm
06:25 AM 53.5°F11.9°C 51.8°F11.0°C 94% 5.8 mph E9.3 kmh E 8.1 mph13.0 kmh 29.78 in1008.5 mb - 0.00 in0.0 mm 0.00 in0.0 mm
06:30 AM 53.6°F12.0°C 51.9°F11.1°C 94% 3.5 mph ENE5.6 kmh ENE 10.4 mph16.7 kmh 29.78 in1008.5 mb - 0.00 in0.0 mm 0.00 in0.0 mm
06:35 AM 53.6°F12.0°C 51.9°F11.1°C 94% 4.6 mph E7.4 kmh E 9.2 mph14.8 kmh 29.78 in1008.5 mb - 0.00 in0.0 mm 0.00 in0.0 mm
06:40 AM 53.6°F12.0°C 51.9°F11.1°C 94% 5.8 mph E9.3 kmh E 11.5 mph18.5 kmh 29.78 in1008.5 mb - 0.00 in0.0 mm 0.00 in0.0 mm
06:45 AM 53.5°F11.9°C 51.8°F11.0°C 94% 4.6 mph E7.4 kmh E 6.9 mph11.1 kmh 29.78 in1008.5 mb - 0.00 in0.0 mm 0.00 in0.0 mm
06:50 AM 53.5°F11.9°C 51.8°F11.0°C 94% 5.8 mph E9.3 kmh E 8.1 mph13.0 kmh 29.78 in1008.5 mb - 0.00 in0.0 mm 0.00 in0.0 mm
06:55 AM 53.5°F11.9°C 51.8°F11.0°C 94% 4.6 mph E7.4 kmh E 10.4 mph16.7 kmh 29.78 in1008.5 mb - 0.00 in0.0 mm 0.00 in0.0 mm
07:00 AM 53.4°F11.9°C 51.7°F10.9°C 94% 6.9 mph ENE11.1 kmh ENE 11.5 mph18.5 kmh 29.78 in1008.5 mb - 0.00 in0.0 mm 0.00 in0.0 mm
07:10 AM 53.4°F11.9°C 51.7°F10.9°C 94% 5.8 mph E9.3 kmh E 8.1 mph13.0 kmh 29.78 in1008.5 mb - 0.00 in0.0 mm 0.00 in0.0 mm
07:15 AM 53.5°F11.9°C 51.8°F11.0°C 94% 3.5 mph E5.6 kmh E 8.1 mph13.0 kmh 29.79 in1008.8 mb - 0.00 in0.0 mm 0.00 in0.0 mm
07:20 AM 53.6°F12.0°C 51.9°F11.1°C 94% 2.3 mph E3.7 kmh E 10.4 mph16.7 kmh 29.79 in1008.8 mb - 0.00 in0.0 mm 0.00 in0.0 mm
07:25 AM 53.4°F11.9°C 51.7°F10.9°C 94% 4.6 mph E7.4 kmh E 6.9 mph11.1 kmh 29.79 in1008.8 mb - 0.00 in0.0 mm 0.00 in0.0 mm
07:30 AM 53.4°F11.9°C 51.7°F10.9°C 94% 3.5 mph E5.6 kmh E 6.9 mph11.1 kmh 29.79 in1008.8 mb - 0.00 in0.0 mm 0.00 in0.0 mm
07:35 AM 53.4°F11.9°C 51.7°F10.9°C 94% 5.8 mph E9.3 kmh E 8.1 mph13.0 kmh 29.79 in1008.8 mb - 0.00 in0.0 mm 0.00 in0.0 mm
07:40 AM 53.3°F11.8°C 51.6°F10.9°C 94% 5.8 mph E9.3 kmh E 9.2 mph14.8 kmh 29.79 in1008.8 mb - 0.00 in0.0 mm 0.00 in0.0 mm
07:45 AM 53.4°F11.9°C 51.7°F10.9°C 94% 5.8 mph E9.3 kmh E 8.1 mph13.0 kmh 29.80 in1009.1 mb - 0.00 in0.0 mm 0.00 in0.0 mm
07:50 AM 53.4°F11.9°C 51.7°F10.9°C 94% 4.6 mph E7.4 kmh E 10.4 mph16.7 kmh 29.79 in1008.8 mb - 0.00 in0.0 mm 0.00 in0.0 mm
07:55 AM 53.4°F11.9°C 51.7°F10.9°C 94% 3.5 mph E5.6 kmh E 6.9 mph11.1 kmh 29.79 in1008.8 mb - 0.00 in0.0 mm 0.00 in0.0 mm
08:00 AM 53.4°F11.9°C 51.7°F10.9°C 94% 4.6 mph ENE7.4 kmh ENE 9.2 mph14.8 kmh 29.79 in1008.8 mb - 0.00 in0.0 mm 0.00 in0.0 mm
08:10 AM 53.4°F11.9°C 51.7°F10.9°C 94% 2.3 mph E3.7 kmh E 6.9 mph11.1 kmh 29.79 in1008.8 mb - 0.00 in0.0 mm 0.00 in0.0 mm
08:15 AM 53.4°F11.9°C 51.7°F10.9°C 94% 3.5 mph ENE5.6 kmh ENE 4.6 mph7.4 kmh 29.79 in1008.8 mb - 0.00 in0.0 mm 0.00 in0.0 mm
08:20 AM 53.2°F11.8°C 51.5°F10.8°C 94% 4.6 mph ENE7.4 kmh ENE 6.9 mph11.1 kmh 29.79 in1008.8 mb - 0.00 in0.0 mm 0.00 in0.0 mm
08:25 AM 53.2°F11.8°C 51.5°F10.8°C 94% 4.6 mph E7.4 kmh E 5.8 mph9.3 kmh 29.79 in1008.8 mb - 0.00 in0.0 mm 0.00 in0.0 mm
08:30 AM 53.4°F11.9°C 51.7°F10.9°C 94% 4.6 mph ENE7.4 kmh ENE 11.5 mph18.5 kmh 29.79 in1008.8 mb - 0.00 in0.0 mm 0.00 in0.0 mm
08:35 AM 53.4°F11.9°C 51.7°F10.9°C 94% 8.1 mph E13.0 kmh E 10.4 mph16.7 kmh 29.79 in1008.8 mb - 0.00 in0.0 mm 0.00 in0.0 mm
08:40 AM 53.7°F12.1°C 52.0°F11.1°C 94% 5.8 mph E9.3 kmh E 8.1 mph13.0 kmh 29.79 in1008.8 mb - 0.00 in0.0 mm 0.00 in0.0 mm
08:45 AM 53.8°F12.1°C 52.1°F11.2°C 94% 5.8 mph ENE9.3 kmh ENE 11.5 mph18.5 kmh 29.79 in1008.8 mb - 0.00 in0.0 mm 0.00 in0.0 mm
08:50 AM 54.0°F12.2°C 52.3°F11.3°C 94% 5.8 mph E9.3 kmh E 8.1 mph13.0 kmh 29.79 in1008.8 mb - 0.00 in0.0 mm 0.00 in0.0 mm
08:55 AM 54.1°F12.3°C 52.4°F11.3°C 94% 9.2 mph E14.8 kmh E 13.8 mph22.2 kmh 29.80 in1009.1 mb - 0.00 in0.0 mm 0.00 in0.0 mm
09:00 AM 54.0°F12.2°C 52.3°F11.3°C 94% 5.8 mph E9.3 kmh E 9.2 mph14.8 kmh 29.80 in1009.1 mb - 0.00 in0.0 mm 0.00 in0.0 mm
09:10 AM 53.8°F12.1°C 52.2°F11.2°C 94% 5.8 mph E9.3 kmh E 10.4 mph16.7 kmh 29.80 in1009.1 mb - 0.00 in0.0 mm 0.00 in0.0 mm
09:15 AM 54.2°F12.3°C 52.5°F11.4°C 94% 5.8 mph E9.3 kmh E 11.5 mph18.5 kmh 29.79 in1008.8 mb - 0.00 in0.0 mm 0.00 in0.0 mm
09:20 AM 54.2°F12.3°C 52.5°F11.4°C 94% 6.9 mph E11.1 kmh E 12.7 mph20.4 kmh 29.79 in1008.8 mb - 0.00 in0.0 mm 0.00 in0.0 mm
09:25 AM 54.3°F12.4°C 52.7°F11.5°C 94% 5.8 mph E9.3 kmh E 8.1 mph13.0 kmh 29.79 in1008.8 mb - 0.00 in0.0 mm 0.00 in0.0 mm
09:30 AM 54.6°F12.6°C 52.9°F11.6°C 94% 6.9 mph E11.1 kmh E 12.7 mph20.4 kmh 29.79 in1008.8 mb - 0.00 in0.0 mm 0.00 in0.0 mm
09:35 AM 54.8°F12.7°C 53.2°F11.8°C 94% 5.8 mph E9.3 kmh E 8.1 mph13.0 kmh 29.79 in1008.8 mb - 0.00 in0.0 mm 0.00 in0.0 mm
09:40 AM 54.8°F12.7°C 53.1°F11.7°C 94% 6.9 mph E11.1 kmh E 11.5 mph18.5 kmh 29.79 in1008.8 mb - 0.00 in0.0 mm 0.00 in0.0 mm
09:45 AM 54.9°F12.7°C 53.2°F11.8°C 94% 8.1 mph ENE13.0 kmh ENE 11.5 mph18.5 kmh 29.80 in1009.1 mb - 0.00 in0.0 mm 0.00 in0.0 mm
09:50 AM 55.0°F12.8°C 53.3°F11.8°C 94% 4.6 mph E7.4 kmh E 11.5 mph18.5 kmh 29.80 in1009.1 mb - 0.00 in0.0 mm 0.00 in0.0 mm
09:55 AM 55.1°F12.8°C 53.4°F11.9°C 94% 6.9 mph E11.1 kmh E 9.2 mph14.8 kmh 29.80 in1009.1 mb - 0.00 in0.0 mm 0.00 in0.0 mm
10:00 AM 55.2°F12.9°C 53.5°F11.9°C 94% 6.9 mph E11.1 kmh E 11.5 mph18.5 kmh 29.80 in1009.1 mb - 0.00 in0.0 mm 0.00 in0.0 mm
10:10 AM 55.4°F13.0°C 53.7°F12.1°C 94% 8.1 mph E13.0 kmh E 11.5 mph18.5 kmh 29.80 in1009.1 mb - 0.00 in0.0 mm 0.00 in0.0 mm
10:15 AM 55.8°F13.2°C 54.1°F12.3°C 94% 5.8 mph E9.3 kmh E 9.2 mph14.8 kmh 29.80 in1009.1 mb - 0.00 in0.0 mm 0.00 in0.0 mm
10:20 AM 55.9°F13.3°C 53.9°F12.2°C 93% 4.6 mph E7.4 kmh E 8.1 mph13.0 kmh 29.80 in1009.1 mb - 0.00 in0.0 mm 0.00 in0.0 mm
10:25 AM 56.1°F13.4°C 54.1°F12.3°C 93% 4.6 mph E7.4 kmh E 9.2 mph14.8 kmh 29.80 in1009.1 mb - 0.00 in0.0 mm 0.00 in0.0 mm
10:30 AM 56.3°F13.5°C 54.3°F12.4°C 93% 8.1 mph E13.0 kmh E 11.5 mph18.5 kmh 29.80 in1009.1 mb - 0.00 in0.0 mm 0.00 in0.0 mm
10:35 AM 56.2°F13.4°C 53.9°F12.2°C 92% 5.8 mph E9.3 kmh E 11.5 mph18.5 kmh 29.80 in1009.1 mb - 0.00 in0.0 mm 0.00 in0.0 mm
10:40 AM 56.3°F13.5°C 54.0°F12.2°C 92% 5.8 mph E9.3 kmh E 12.7 mph20.4 kmh 29.80 in1009.1 mb - 0.00 in0.0 mm 0.00 in0.0 mm
10:45 AM 56.4°F13.6°C 54.1°F12.3°C 92% 9.2 mph E14.8 kmh E 12.7 mph20.4 kmh 29.80 in1009.1 mb - 0.00 in0.0 mm 0.00 in0.0 mm
10:50 AM 56.7°F13.7°C 54.4°F12.4°C 92% 4.6 mph E7.4 kmh E 8.1 mph13.0 kmh 29.79 in1008.8 mb - 0.00 in0.0 mm 0.00 in0.0 mm
10:55 AM 57.0°F13.9°C 54.4°F12.4°C 91% 8.1 mph E13.0 kmh E 11.5 mph18.5 kmh 29.80 in1009.1 mb - 0.00 in0.0 mm 0.00 in0.0 mm
11:00 AM 57.0°F13.9°C 54.4°F12.4°C 91% 6.9 mph E11.1 kmh E 10.4 mph16.7 kmh 29.80 in1009.1 mb - 0.00 in0.0 mm 0.00 in0.0 mm
11:10 AM 57.2°F14.0°C 54.2°F12.3°C 90% 3.5 mph E5.6 kmh E 3.5 mph5.6 kmh 29.80 in1009.1 mb - 0.00 in0.0 mm 0.00 in0.0 mm
11:15 AM 57.5°F14.2°C 54.6°F12.6°C 90% 4.6 mph E7.4 kmh E 11.5 mph18.5 kmh 29.80 in1009.1 mb - 0.00 in0.0 mm 0.00 in0.0 mm
11:20 AM 57.7°F14.3°C 54.5°F12.5°C 89% 9.2 mph ENE14.8 kmh ENE 16.1 mph25.9 kmh 29.80 in1009.1 mb - 0.00 in0.0 mm 0.00 in0.0 mm
11:25 AM 57.9°F14.4°C 54.7°F12.6°C 89% 6.9 mph E11.1 kmh E 10.4 mph16.7 kmh 29.80 in1009.1 mb - 0.00 in0.0 mm 0.00 in0.0 mm
11:30 AM 58.1°F14.5°C 54.6°F12.6°C 88% 5.8 mph ESE9.3 kmh ESE 10.4 mph16.7 kmh 29.80 in1009.1 mb - 0.00 in0.0 mm 0.00 in0.0 mm
11:35 AM 58.2°F14.6°C 55.0°F12.8°C 89% 6.9 mph ENE11.1 kmh ENE 11.5 mph18.5 kmh 29.80 in1009.1 mb - 0.00 in0.0 mm 0.00 in0.0 mm
11:40 AM 58.2°F14.6°C 54.7°F12.6°C 88% 6.9 mph E11.1 kmh E 10.4 mph16.7 kmh 29.80 in1009.1 mb - 0.00 in0.0 mm 0.00 in0.0 mm
11:45 AM 58.7°F14.8°C 55.1°F12.8°C 88% 6.9 mph E11.1 kmh E 8.1 mph13.0 kmh 29.80 in1009.1 mb - 0.00 in0.0 mm 0.00 in0.0 mm
11:50 AM 59.0°F15.0°C 55.2°F12.9°C 87% 8.1 mph E13.0 kmh E 11.5 mph18.5 kmh 29.80 in1009.1 mb - 0.00 in0.0 mm 0.00 in0.0 mm
11:55 AM 58.8°F14.9°C 55.0°F12.8°C 87% 8.1 mph E13.0 kmh E 11.5 mph18.5 kmh 29.80 in1009.1 mb - 0.00 in0.0 mm 0.00 in0.0 mm
12:00 PM 59.2°F15.1°C 55.4°F13.0°C 87% 5.8 mph E9.3 kmh E 10.4 mph16.7 kmh 29.80 in1009.1 mb - 0.00 in0.0 mm 0.00 in0.0 mm
12:10 PM 59.8°F15.4°C 55.6°F13.1°C 86% 8.1 mph ENE13.0 kmh ENE 11.5 mph18.5 kmh 29.80 in1009.1 mb - 0.00 in0.0 mm 0.00 in0.0 mm
12:15 PM 59.8°F15.4°C 56.0°F13.3°C 87% 8.1 mph E13.0 kmh E 13.8 mph22.2 kmh 29.80 in1009.1 mb - 0.00 in0.0 mm 0.00 in0.0 mm
12:20 PM 60.3°F15.7°C 56.1°F13.4°C 86% 4.6 mph E7.4 kmh E 8.1 mph13.0 kmh 29.80 in1009.1 mb - 0.00 in0.0 mm 0.00 in0.0 mm
12:25 PM 60.9°F16.1°C 56.3°F13.5°C 85% 5.8 mph ESE9.3 kmh ESE 9.2 mph14.8 kmh 29.80 in1009.1 mb - 0.00 in0.0 mm 0.00 in0.0 mm
12:30 PM 61.1°F16.2°C 56.5°F13.6°C 85% 8.1 mph E13.0 kmh E 11.5 mph18.5 kmh 29.79 in1008.8 mb - 0.00 in0.0 mm 0.00 in0.0 mm
12:35 PM 61.4°F16.3°C 56.9°F13.8°C 85% 5.8 mph E9.3 kmh E 9.2 mph14.8 kmh 29.79 in1008.8 mb - 0.00 in0.0 mm 0.00 in0.0 mm
12:40 PM 62.4°F16.9°C 57.5°F14.2°C 84% 5.8 mph ESE9.3 kmh ESE 11.5 mph18.5 kmh 29.79 in1008.8 mb - 0.00 in0.0 mm 0.00 in0.0 mm
12:45 PM 62.6°F17.0°C 57.4°F14.1°C 83% 5.8 mph ENE9.3 kmh ENE 11.5 mph18.5 kmh 29.79 in1008.8 mb - 0.00 in0.0 mm 0.00 in0.0 mm
12:50 PM 63.2°F17.3°C 57.9°F14.4°C 83% 4.6 mph E7.4 kmh E 10.4 mph16.7 kmh 29.79 in1008.8 mb - 0.00 in0.0 mm 0.00 in0.0 mm
12:55 PM 63.5°F17.5°C 57.9°F14.4°C 82% 8.1 mph E13.0 kmh E 11.5 mph18.5 kmh 29.79 in1008.8 mb - 0.00 in0.0 mm 0.00 in0.0 mm
01:00 PM 64.6°F18.1°C 58.6°F14.8°C 81% 4.6 mph NE7.4 kmh NE 8.1 mph13.0 kmh 29.79 in1008.8 mb - 0.00 in0.0 mm 0.00 in0.0 mm
01:10 PM 65.0°F18.3°C 58.7°F14.8°C 80% 5.8 mph NE9.3 kmh NE 8.1 mph13.0 kmh 29.79 in1008.8 mb - 0.00 in0.0 mm 0.00 in0.0 mm
01:15 PM 66.4°F19.1°C 59.3°F15.2°C 78% 5.8 mph NE9.3 kmh NE 11.5 mph18.5 kmh 29.78 in1008.5 mb - 0.00 in0.0 mm 0.00 in0.0 mm
01:20 PM 64.7°F18.2°C 58.1°F14.5°C 79% 6.9 mph NE11.1 kmh NE 11.5 mph18.5 kmh 29.78 in1008.5 mb - 0.00 in0.0 mm 0.00 in0.0 mm
01:25 PM 65.1°F18.4°C 58.8°F14.9°C 80% 4.6 mph NE7.4 kmh NE 10.4 mph16.7 kmh 29.79 in1008.8 mb - 0.00 in0.0 mm 0.00 in0.0 mm
01:30 PM 66.0°F18.9°C 58.9°F14.9°C 78% 6.9 mph NNE11.1 kmh NNE 10.4 mph16.7 kmh 29.79 in1008.8 mb - 0.00 in0.0 mm 0.00 in0.0 mm
01:35 PM 65.1°F18.4°C 58.4°F14.7°C 79% 4.6 mph NNE7.4 kmh NNE 9.2 mph14.8 kmh 29.79 in1008.8 mb - 0.00 in0.0 mm 0.00 in0.0 mm
01:40 PM 64.6°F18.1°C 58.3°F14.6°C 80% 6.9 mph NE11.1 kmh NE 11.5 mph18.5 kmh 29.79 in1008.8 mb - 0.00 in0.0 mm 0.00 in0.0 mm
01:45 PM 64.6°F18.1°C 58.3°F14.6°C 80% 4.6 mph NE7.4 kmh NE 8.1 mph13.0 kmh 29.79 in1008.8 mb - 0.00 in0.0 mm 0.00 in0.0 mm
01:50 PM 64.5°F18.1°C 58.1°F14.5°C 80% 5.8 mph NE9.3 kmh NE 12.7 mph20.4 kmh 29.78 in1008.5 mb - 0.00 in0.0 mm 0.00 in0.0 mm
01:55 PM 64.9°F18.3°C 58.9°F14.9°C 81% 3.5 mph NE5.6 kmh NE 4.6 mph7.4 kmh 29.78 in1008.5 mb - 0.00 in0.0 mm 0.00 in0.0 mm
02:00 PM 64.4°F18.0°C 58.1°F14.5°C 80% 5.8 mph NNE9.3 kmh NNE 10.4 mph16.7 kmh 29.78 in1008.5 mb - 0.00 in0.0 mm 0.00 in0.0 mm
02:10 PM 64.2°F17.9°C 58.2°F14.6°C 81% 5.8 mph NE9.3 kmh NE 9.2 mph14.8 kmh 29.79 in1008.8 mb - 0.00 in0.0 mm 0.00 in0.0 mm
02:15 PM 65.1°F18.4°C 58.4°F14.7°C 79% 5.8 mph NE9.3 kmh NE 6.9 mph11.1 kmh 29.78 in1008.5 mb - 0.00 in0.0 mm 0.00 in0.0 mm
02:20 PM 65.0°F18.3°C 58.4°F14.7°C 79% 5.8 mph NE9.3 kmh NE 8.1 mph13.0 kmh 29.78 in1008.5 mb - 0.00 in0.0 mm 0.00 in0.0 mm
02:25 PM 65.2°F18.4°C 58.5°F14.7°C 79% 8.1 mph ENE13.0 kmh ENE 12.7 mph20.4 kmh 29.78 in1008.5 mb - 0.00 in0.0 mm 0.00 in0.0 mm
02:30 PM 65.3°F18.5°C 58.2°F14.6°C 78% 6.9 mph NE11.1 kmh NE 11.5 mph18.5 kmh 29.78 in1008.5 mb - 0.00 in0.0 mm 0.00 in0.0 mm
02:35 PM 66.0°F18.9°C 58.6°F14.8°C 77% 5.8 mph NE9.3 kmh NE 8.1 mph13.0 kmh 29.78 in1008.5 mb - 0.00 in0.0 mm 0.00 in0.0 mm
02:40 PM 66.2°F19.0°C 58.8°F14.9°C 77% 6.9 mph ENE11.1 kmh ENE 10.4 mph16.7 kmh 29.78 in1008.5 mb - 0.00 in0.0 mm 0.00 in0.0 mm
02:45 PM 65.6°F18.7°C 58.6°F14.8°C 78% 3.5 mph NE5.6 kmh NE 4.6 mph7.4 kmh 29.78 in1008.5 mb - 0.00 in0.0 mm 0.00 in0.0 mm
02:50 PM 66.1°F18.9°C 59.4°F15.2°C 79% 5.8 mph NE9.3 kmh NE 9.2 mph14.8 kmh 29.78 in1008.5 mb - 0.00 in0.0 mm 0.00 in0.0 mm
02:55 PM 66.6°F19.2°C 58.8°F14.9°C 76% 5.8 mph NE9.3 kmh NE 9.2 mph14.8 kmh 29.78 in1008.5 mb - 0.00 in0.0 mm 0.00 in0.0 mm
03:00 PM 66.5°F19.2°C 59.1°F15.1°C 77% 4.6 mph NE7.4 kmh NE 9.2 mph14.8 kmh 29.78 in1008.5 mb - 0.00 in0.0 mm 0.00 in0.0 mm
03:10 PM 66.2°F19.0°C 59.1°F15.1°C 78% 4.6 mph NE7.4 kmh NE 5.8 mph9.3 kmh 29.78 in1008.5 mb - 0.00 in0.0 mm 0.00 in0.0 mm
03:15 PM 66.9°F19.4°C 59.4°F15.2°C 77% 4.6 mph NE7.4 kmh NE 8.1 mph13.0 kmh 29.78 in1008.5 mb - 0.00 in0.0 mm 0.00 in0.0 mm
03:20 PM 66.4°F19.1°C 59.4°F15.2°C 78% 5.8 mph NNE9.3 kmh NNE 11.5 mph18.5 kmh 29.77 in1008.1 mb - 0.00 in0.0 mm 0.00 in0.0 mm
03:25 PM 66.3°F19.1°C 58.9°F14.9°C 77% 4.6 mph NE7.4 kmh NE 4.6 mph7.4 kmh 29.77 in1008.1 mb - 0.00 in0.0 mm 0.00 in0.0 mm
03:30 PM 66.5°F19.2°C 58.7°F14.8°C 76% 6.9 mph NE11.1 kmh NE 10.4 mph16.7 kmh 29.77 in1008.1 mb - 0.00 in0.0 mm 0.00 in0.0 mm
03:35 PM 67.1°F19.5°C 59.3°F15.2°C 76% 6.9 mph NE11.1 kmh NE 10.4 mph16.7 kmh 29.77 in1008.1 mb - 0.00 in0.0 mm 0.00 in0.0 mm
03:40 PM 67.2°F19.6°C 59.4°F15.2°C 76% 6.9 mph NNE11.1 kmh NNE 11.5 mph18.5 kmh 29.77 in1008.1 mb - 0.00 in0.0 mm 0.00 in0.0 mm
03:45 PM 66.6°F19.2°C 59.2°F15.1°C 77% 5.8 mph NE9.3 kmh NE 9.2 mph14.8 kmh 29.77 in1008.1 mb - 0.00 in0.0 mm 0.00 in0.0 mm
03:50 PM 66.9°F19.4°C 59.1°F15.1°C 76% 3.5 mph NNE5.6 kmh NNE 5.8 mph9.3 kmh 29.77 in1008.1 mb - 0.00 in0.0 mm 0.00 in0.0 mm
03:55 PM 66.8°F19.3°C 59.0°F15.0°C 76% 4.6 mph NNE7.4 kmh NNE 8.1 mph13.0 kmh 29.77 in1008.1 mb - 0.00 in0.0 mm 0.00 in0.0 mm
04:00 PM 66.5°F19.2°C 59.0°F15.0°C 77% 5.8 mph NE9.3 kmh NE 9.2 mph14.8 kmh 29.77 in1008.1 mb - 0.00 in0.0 mm 0.00 in0.0 mm
04:10 PM 67.2°F19.6°C 59.0°F15.0°C 75% 4.6 mph NE7.4 kmh NE 8.1 mph13.0 kmh 29.77 in1008.1 mb - 0.00 in0.0 mm 0.00 in0.0 mm
04:15 PM 67.0°F19.4°C 59.2°F15.1°C 76% 6.9 mph N11.1 kmh N 11.5 mph18.5 kmh 29.76 in1007.8 mb - 0.00 in0.0 mm 0.00 in0.0 mm
04:20 PM 66.6°F19.2°C 58.8°F14.9°C 76% 5.8 mph NNE9.3 kmh NNE 10.4 mph16.7 kmh 29.77 in1008.1 mb - 0.00 in0.0 mm 0.00 in0.0 mm
04:25 PM 66.9°F19.4°C 59.1°F15.1°C 76% 5.8 mph NE9.3 kmh NE 8.1 mph13.0 kmh 29.76 in1007.8 mb - 0.00 in0.0 mm 0.00 in0.0 mm
04:30 PM 66.9°F19.4°C 58.8°F14.9°C 75% 4.6 mph NE7.4 kmh NE 10.4 mph16.7 kmh 29.77 in1008.1 mb - 0.00 in0.0 mm 0.00 in0.0 mm
04:35 PM 66.9°F19.4°C 58.7°F14.8°C 75% 4.6 mph NNE7.4 kmh NNE 5.8 mph9.3 kmh 29.77 in1008.1 mb - 0.00 in0.0 mm 0.00 in0.0 mm
04:40 PM 66.5°F19.2°C 58.7°F14.8°C 76% 4.6 mph NE7.4 kmh NE 9.2 mph14.8 kmh 29.77 in1008.1 mb - 0.00 in0.0 mm 0.00 in0.0 mm
04:45 PM 66.5°F19.2°C 58.7°F14.8°C 76% 5.8 mph NE9.3 kmh NE 6.9 mph11.1 kmh 29.76 in1007.8 mb - 0.00 in0.0 mm 0.00 in0.0 mm
04:50 PM 66.9°F19.4°C 58.7°F14.8°C 75% 5.8 mph NE9.3 kmh NE 9.2 mph14.8 kmh 29.76 in1007.8 mb - 0.00 in0.0 mm 0.00 in0.0 mm
04:55 PM 67.3°F19.6°C 59.1°F15.1°C 75% 5.8 mph NE9.3 kmh NE 10.4 mph16.7 kmh 29.76 in1007.8 mb - 0.00 in0.0 mm 0.00 in0.0 mm
05:00 PM 67.0°F19.4°C 58.8°F14.9°C 75% 5.8 mph NE9.3 kmh NE 9.2 mph14.8 kmh 29.76 in1007.8 mb - 0.00 in0.0 mm 0.00 in0.0 mm
05:10 PM 67.5°F19.7°C 59.3°F15.2°C 75% 4.6 mph NE7.4 kmh NE 10.4 mph16.7 kmh 29.76 in1007.8 mb - 0.00 in0.0 mm 0.00 in0.0 mm
05:15 PM 67.1°F19.5°C 59.3°F15.2°C 76% 3.5 mph NNE5.6 kmh NNE 6.9 mph11.1 kmh 29.76 in1007.8 mb - 0.00 in0.0 mm 0.00 in0.0 mm
05:20 PM 66.7°F19.3°C 58.5°F14.7°C 75% 3.5 mph NE5.6 kmh NE 8.1 mph13.0 kmh 29.76 in1007.8 mb - 0.00 in0.0 mm 0.00 in0.0 mm
05:25 PM 66.6°F19.2°C 58.8°F14.9°C 76% 4.6 mph NE7.4 kmh NE 10.4 mph16.7 kmh 29.76 in1007.8 mb - 0.00 in0.0 mm 0.00 in0.0 mm
05:30 PM 66.5°F19.2°C 58.7°F14.8°C 76% 6.9 mph NNE11.1 kmh NNE 11.5 mph18.5 kmh 29.76 in1007.8 mb - 0.00 in0.0 mm 0.00 in0.0 mm
05:35 PM 65.8°F18.8°C 58.4°F14.7°C 77% 4.6 mph NNE7.4 kmh NNE 8.1 mph13.0 kmh 29.76 in1007.8 mb - 0.00 in0.0 mm 0.00 in0.0 mm
05:40 PM 65.5°F18.6°C 58.1°F14.5°C 77% 4.6 mph NNE7.4 kmh NNE 8.1 mph13.0 kmh 29.76 in1007.8 mb - 0.00 in0.0 mm 0.00 in0.0 mm
05:45 PM 64.4°F18.0°C 57.8°F14.3°C 79% 4.6 mph NNE7.4 kmh NNE 4.6 mph7.4 kmh 29.76 in1007.8 mb - 0.00 in0.0 mm 0.00 in0.0 mm
05:50 PM 64.0°F17.8°C 57.4°F14.1°C 79% 4.6 mph NE7.4 kmh NE 8.1 mph13.0 kmh 29.76 in1007.8 mb - 0.00 in0.0 mm 0.00 in0.0 mm
05:55 PM 64.4°F18.0°C 58.1°F14.5°C 80% 4.6 mph NNE7.4 kmh NNE 8.1 mph13.0 kmh 29.76 in1007.8 mb - 0.00 in0.0 mm 0.00 in0.0 mm
06:00 PM 64.7°F18.2°C 57.7°F14.3°C 78% 6.9 mph NNE11.1 kmh NNE 11.5 mph18.5 kmh 29.76 in1007.8 mb - 0.00 in0.0 mm 0.00 in0.0 mm
06:10 PM 64.1°F17.8°C 57.8°F14.3°C 80% 4.6 mph NNE7.4 kmh NNE 8.1 mph13.0 kmh 29.76 in1007.8 mb - 0.00 in0.0 mm 0.00 in0.0 mm
06:15 PM 64.1°F17.8°C 57.5°F14.2°C 79% 5.8 mph NE9.3 kmh NE 10.4 mph16.7 kmh 29.75 in1007.5 mb - 0.00 in0.0 mm 0.00 in0.0 mm
06:20 PM 64.0°F17.8°C 57.7°F14.3°C 80% 4.6 mph NE7.4 kmh NE 8.1 mph13.0 kmh 29.76 in1007.8 mb - 0.00 in0.0 mm 0.00 in0.0 mm
06:25 PM 63.8°F17.7°C 57.5°F14.2°C 80% 3.5 mph NE5.6 kmh NE 5.8 mph9.3 kmh 29.76 in1007.8 mb - 0.00 in0.0 mm 0.00 in0.0 mm
06:30 PM 63.5°F17.5°C 57.6°F14.2°C 81% 3.5 mph ENE5.6 kmh ENE 6.9 mph11.1 kmh 29.75 in1007.5 mb - 0.00 in0.0 mm 0.00 in0.0 mm
06:35 PM 63.3°F17.4°C 57.3°F14.1°C 81% 2.3 mph NNE3.7 kmh NNE 4.6 mph7.4 kmh 29.75 in1007.5 mb - 0.00 in0.0 mm 0.00 in0.0 mm
06:40 PM 63.0°F17.2°C 57.4°F14.1°C 82% 4.6 mph NE7.4 kmh NE 6.9 mph11.1 kmh 29.75 in1007.5 mb - 0.00 in0.0 mm 0.00 in0.0 mm
06:45 PM 62.8°F17.1°C 57.3°F14.1°C 82% 4.6 mph NE7.4 kmh NE 8.1 mph13.0 kmh 29.75 in1007.5 mb - 0.00 in0.0 mm 0.00 in0.0 mm
06:50 PM 62.6°F17.0°C 57.0°F13.9°C 82% 4.6 mph NE7.4 kmh NE 8.1 mph13.0 kmh 29.75 in1007.5 mb - 0.00 in0.0 mm 0.00 in0.0 mm
06:55 PM 62.4°F16.9°C 57.1°F13.9°C 83% 2.3 mph NE3.7 kmh NE 4.6 mph7.4 kmh 29.76 in1007.8 mb - 0.00 in0.0 mm 0.00 in0.0 mm
07:00 PM 62.0°F16.7°C 56.8°F13.8°C 83% 3.5 mph NNE5.6 kmh NNE 6.9 mph11.1 kmh 29.75 in1007.5 mb - 0.00 in0.0 mm 0.00 in0.0 mm
07:10 PM 61.9°F16.6°C 57.0°F13.9°C 84% 3.5 mph NE5.6 kmh NE 6.9 mph11.1 kmh 29.75 in1007.5 mb - 0.00 in0.0 mm 0.00 in0.0 mm
07:15 PM 62.0°F16.7°C 57.1°F13.9°C 84% 1.2 mph NE1.9 kmh NE 3.5 mph5.6 kmh 29.76 in1007.8 mb - 0.00 in0.0 mm 0.00 in0.0 mm
07:20 PM 62.0°F16.7°C 56.8°F13.8°C 83% 3.5 mph NE5.6 kmh NE 4.6 mph7.4 kmh 29.76 in1007.8 mb - 0.00 in0.0 mm 0.00 in0.0 mm
07:25 PM 62.1°F16.7°C 57.2°F14.0°C 84% 2.3 mph NE3.7 kmh NE 3.5 mph5.6 kmh 29.76 in1007.8 mb - 0.00 in0.0 mm 0.00 in0.0 mm
07:30 PM 62.2°F16.8°C 57.3°F14.1°C 84% 2.3 mph ENE3.7 kmh ENE 3.5 mph5.6 kmh 29.76 in1007.8 mb - 0.00 in0.0 mm 0.00 in0.0 mm
07:35 PM 62.3°F16.8°C 57.4°F14.1°C 84% 2.3 mph NE3.7 kmh NE 3.5 mph5.6 kmh 29.76 in1007.8 mb - 0.00 in0.0 mm 0.00 in0.0 mm
07:40 PM 62.1°F16.7°C 57.2°F14.0°C 84% 3.5 mph NE5.6 kmh NE 3.5 mph5.6 kmh 29.76 in1007.8 mb - 0.00 in0.0 mm 0.00 in0.0 mm
07:45 PM 61.8°F16.6°C 56.9°F13.8°C 84% 3.5 mph NNE5.6 kmh NNE 3.5 mph5.6 kmh 29.76 in1007.8 mb - 0.00 in0.0 mm 0.00 in0.0 mm
07:50 PM 61.3°F16.3°C 56.4°F13.6°C 84% 3.5 mph NNE5.6 kmh NNE 5.8 mph9.3 kmh 29.76 in1007.8 mb - 0.00 in0.0 mm 0.00 in0.0 mm
07:55 PM 60.7°F15.9°C 56.2°F13.4°C 85% 2.3 mph NE3.7 kmh NE 3.5 mph5.6 kmh 29.76 in1007.8 mb - 0.00 in0.0 mm 0.00 in0.0 mm
08:00 PM 60.3°F15.7°C 55.8°F13.2°C 85% 3.5 mph NNE5.6 kmh NNE 4.6 mph7.4 kmh 29.76 in1007.8 mb - 0.00 in0.0 mm 0.00 in0.0 mm
08:10 PM 59.7°F15.4°C 55.5°F13.1°C 86% 2.3 mph NE3.7 kmh NE 3.5 mph5.6 kmh 29.76 in1007.8 mb - 0.00 in0.0 mm 0.00 in0.0 mm
08:15 PM 59.5°F15.3°C 55.3°F12.9°C 86% 2.3 mph NE3.7 kmh NE 3.5 mph5.6 kmh 29.77 in1008.1 mb - 0.00 in0.0 mm 0.00 in0.0 mm
08:20 PM 59.2°F15.1°C 55.3°F12.9°C 87% 2.3 mph NNE3.7 kmh NNE 3.5 mph5.6 kmh 29.77 in1008.1 mb - 0.00 in0.0 mm 0.00 in0.0 mm
08:25 PM 59.0°F15.0°C 55.1°F12.8°C 87% 2.3 mph NE3.7 kmh NE 3.5 mph5.6 kmh 29.77 in1008.1 mb - 0.00 in0.0 mm 0.00 in0.0 mm
08:30 PM 58.7°F14.8°C 54.8°F12.7°C 87% 2.3 mph NE3.7 kmh NE 3.5 mph5.6 kmh 29.77 in1008.1 mb - 0.00 in0.0 mm 0.00 in0.0 mm
08:35 PM 58.5°F14.7°C 54.9°F12.7°C 88% 2.3 mph NE3.7 kmh NE 8.1 mph13.0 kmh 29.77 in1008.1 mb - 0.00 in0.0 mm 0.00 in0.0 mm
08:40 PM 58.4°F14.7°C 54.9°F12.7°C 88% 2.3 mph NE3.7 kmh NE 3.5 mph5.6 kmh 29.76 in1007.8 mb - 0.00 in0.0 mm 0.00 in0.0 mm
08:45 PM 58.2°F14.6°C 54.7°F12.6°C 88% 2.3 mph NE3.7 kmh NE 3.5 mph5.6 kmh 29.77 in1008.1 mb - 0.00 in0.0 mm 0.00 in0.0 mm
08:50 PM 58.1°F14.5°C 54.5°F12.5°C 88% 2.3 mph ENE3.7 kmh ENE 3.5 mph5.6 kmh 29.77 in1008.1 mb - 0.00 in0.0 mm 0.00 in0.0 mm
08:55 PM 58.0°F14.4°C 54.4°F12.4°C 88% 1.2 mph NE1.9 kmh NE 2.3 mph3.7 kmh 29.77 in1008.1 mb - 0.00 in0.0 mm 0.00 in0.0 mm
09:00 PM 57.7°F14.3°C 54.5°F12.5°C 89% 2.3 mph NNE3.7 kmh NNE 3.5 mph5.6 kmh 29.77 in1008.1 mb - 0.00 in0.0 mm 0.00 in0.0 mm
09:10 PM 57.1°F13.9°C 53.9°F12.2°C 89% 2.3 mph NNE3.7 kmh NNE 3.5 mph5.6 kmh 29.77 in1008.1 mb - 0.00 in0.0 mm 0.00 in0.0 mm
09:15 PM 56.8°F13.8°C 53.6°F12.0°C 89% 1.2 mph NNE1.9 kmh NNE 3.5 mph5.6 kmh 29.77 in1008.1 mb - 0.00 in0.0 mm 0.00 in0.0 mm
09:20 PM 56.4°F13.6°C 53.5°F11.9°C 90% 1.2 mph NNE1.9 kmh NNE 2.3 mph3.7 kmh 29.77 in1008.1 mb - 0.00 in0.0 mm 0.00 in0.0 mm
09:25 PM 56.2°F13.4°C 53.3°F11.8°C 90% 1.2 mph NNE1.9 kmh NNE 1.2 mph1.9 kmh 29.77 in1008.1 mb - 0.00 in0.0 mm 0.00 in0.0 mm
09:30 PM 56.1°F13.4°C 53.2°F11.8°C 90% Calm Calm 1.2 mph1.9 kmh 29.77 in1008.1 mb - 0.00 in0.0 mm 0.00 in0.0 mm
09:35 PM 55.9°F13.3°C 53.0°F11.7°C 90% Calm Calm 1.2 mph1.9 kmh 29.79 in1008.8 mb - 0.00 in0.0 mm 0.00 in0.0 mm
09:40 PM 55.1°F12.8°C 52.2°F11.2°C 90% Calm Calm -- 29.77 in1008.1 mb - 0.00 in0.0 mm 0.00 in0.0 mm
09:45 PM 55.2°F12.9°C 52.6°F11.4°C 91% 1.2 mph NNE1.9 kmh NNE 2.3 mph3.7 kmh 29.77 in1008.1 mb - 0.00 in0.0 mm 0.00 in0.0 mm
09:50 PM 55.2°F12.9°C 52.6°F11.4°C 91% 1.2 mph NNE1.9 kmh NNE 2.3 mph3.7 kmh 29.77 in1008.1 mb - 0.00 in0.0 mm 0.00 in0.0 mm
09:55 PM 55.2°F12.9°C 52.6°F11.4°C 91% 1.2 mph NNE1.9 kmh NNE 2.3 mph3.7 kmh 29.77 in1008.1 mb - 0.00 in0.0 mm 0.00 in0.0 mm
10:00 PM 55.3°F12.9°C 52.7°F11.5°C 91% 1.2 mph N1.9 kmh N 2.3 mph3.7 kmh 29.78 in1008.5 mb - 0.00 in0.0 mm 0.00 in0.0 mm
10:10 PM 55.4°F13.0°C 53.2°F11.8°C 92% 1.2 mph N1.9 kmh N 1.2 mph1.9 kmh 29.77 in1008.1 mb - 0.00 in0.0 mm 0.00 in0.0 mm
10:15 PM 55.5°F13.1°C 53.2°F11.8°C 92% 1.2 mph N1.9 kmh N 2.3 mph3.7 kmh 29.77 in1008.1 mb - 0.00 in0.0 mm 0.00 in0.0 mm
10:20 PM 55.5°F13.1°C 53.2°F11.8°C 92% 1.2 mph NNE1.9 kmh NNE 2.3 mph3.7 kmh 29.78 in1008.5 mb - 0.00 in0.0 mm 0.00 in0.0 mm
10:25 PM 55.8°F13.2°C 53.5°F11.9°C 92% 1.2 mph NNE1.9 kmh NNE 3.5 mph5.6 kmh 29.78 in1008.5 mb - 0.00 in0.0 mm 0.00 in0.0 mm
10:30 PM 55.9°F13.3°C 53.6°F12.0°C 92% 2.3 mph NNE3.7 kmh NNE 3.5 mph5.6 kmh 29.78 in1008.5 mb - 0.00 in0.0 mm 0.00 in0.0 mm
10:35 PM 55.8°F13.2°C 53.5°F11.9°C 92% 2.3 mph NNE3.7 kmh NNE 2.3 mph3.7 kmh 29.77 in1008.1 mb - 0.00 in0.0 mm 0.00 in0.0 mm
10:40 PM 55.6°F13.1°C 53.3°F11.8°C 92% Calm Calm 2.3 mph3.7 kmh 29.77 in1008.1 mb - 0.00 in0.0 mm 0.00 in0.0 mm
10:45 PM 55.7°F13.2°C 53.4°F11.9°C 92% Calm Calm 1.2 mph1.9 kmh 29.77 in1008.1 mb - 0.00 in0.0 mm 0.00 in0.0 mm
10:50 PM 55.8°F13.2°C 53.5°F11.9°C 92% Calm Calm 1.2 mph1.9 kmh 29.77 in1008.1 mb - 0.00 in0.0 mm 0.00 in0.0 mm
10:55 PM 54.4°F12.4°C 51.5°F10.8°C 90% Calm Calm 1.2 mph1.9 kmh 29.77 in1008.1 mb - 0.00 in0.0 mm 0.00 in0.0 mm
11:00 PM 53.3°F11.8°C 50.4°F10.2°C 90% Calm Calm -- 29.77 in1008.1 mb - 0.00 in0.0 mm 0.00 in0.0 mm
11:10 PM 53.7°F12.1°C 51.4°F10.8°C 92% 1.2 mph NE1.9 kmh NE 2.3 mph3.7 kmh 29.77 in1008.1 mb - 0.00 in0.0 mm 0.00 in0.0 mm
11:15 PM 54.5°F12.5°C 52.5°F11.4°C 93% Calm Calm 1.2 mph1.9 kmh 29.77 in1008.1 mb - 0.00 in0.0 mm 0.00 in0.0 mm
11:20 PM 55.1°F12.8°C 53.1°F11.7°C 93% 1.2 mph NE1.9 kmh NE 2.3 mph3.7 kmh 29.77 in1008.1 mb - 0.00 in0.0 mm 0.00 in0.0 mm
11:25 PM 55.9°F13.3°C 53.9°F12.2°C 93% Calm Calm 2.3 mph3.7 kmh 29.77 in1008.1 mb - 0.00 in0.0 mm 0.00 in0.0 mm
11:30 PM 56.3°F13.5°C 54.3°F12.4°C 93% 2.3 mph NE3.7 kmh NE 3.5 mph5.6 kmh 29.77 in1008.1 mb - 0.00 in0.0 mm 0.00 in0.0 mm
11:35 PM 56.5°F13.6°C 54.5°F12.5°C 93% 2.3 mph NE3.7 kmh NE 3.5 mph5.6 kmh 29.77 in1008.1 mb - 0.00 in0.0 mm 0.00 in0.0 mm
11:40 PM 56.5°F13.6°C 54.2°F12.3°C 92% 3.5 mph NE5.6 kmh NE 3.5 mph5.6 kmh 29.77 in1008.1 mb - 0.00 in0.0 mm 0.00 in0.0 mm
11:45 PM 56.4°F13.6°C 54.1°F12.3°C 92% 2.3 mph NE3.7 kmh NE 3.5 mph5.6 kmh 29.77 in1008.1 mb - 0.00 in0.0 mm 0.00 in0.0 mm
11:50 PM 56.2°F13.4°C 53.9°F12.2°C 92% 1.2 mph NE1.9 kmh NE 3.5 mph5.6 kmh 29.77 in1008.1 mb - 0.00 in0.0 mm 0.00 in0.0 mm
11:55 PM 56.0°F13.3°C 53.7°F12.1°C 92% 2.3 mph NNE3.7 kmh NNE 3.5 mph5.6 kmh 29.77 in1008.1 mb - 0.00 in0.0 mm 0.00 in0.0 mm